Kissimmee, FL

1:32 PM EDT on July 26, 2016 (GMT -0400)
Buenaventura Lakes | | Change Station

Elev 82 ft 28.34 °N, 81.35 °W | Updated 52 seconds ago

Scattered Clouds
Scattered Clouds
92.5 °F
Feels Like 107 °F
N
5.0
Wind Variable Wind from South
Gusts 8.0 mph

Today
High -- | Low -- °F
--% Chance of Precip.
Yesterday
High -- | Low -- °F
Precip. -- in
Pressure 30.11 in
Visibility 10.0 miles
Clouds Scattered Clouds 3500 ft
Heat Index 107 °F
Dew Point 77 °F
Humidity 61%
Rainfall 0.00 in
Snow Depth Not available.
6:44 AM 8:19 PM
Waning Gibbous, 53% visible
METAR KISM 261656Z 18007KT 110V220 10SM SCT035 32/24 A3011 RMK AO2 SLP196 T03220239
Pressure 30.11 in
Visibility 10.0 miles
Clouds Scattered Clouds 3500 ft
Heat Index 107 °F
Dew Point 77 °F
Humidity 61%
Rainfall 0.00 in
Snow Depth Not available.
6:44 AM 8:19 PM
Waning Gibbous, 53% visible
METAR KISM 261656Z 18007KT 110V220 10SM SCT035 32/24 A3011 RMK AO2 SLP196 T03220239

10-Day Weather Forecast

Almanac

Astronomy

Jul. 26, 2016 Rise Set
Actual Time
Civil Twilight
Nautical Twilight
Astronomical Twilight
Moon
Length of Visible Light
Length of Day
Tomorrow will be .
, % of the Moon is Illuminated

Today's Extremes

State Highs State Lows

Community

WunderPhotos

Upload Photos

1,927,648 photos uploaded!

WunderBlog® & News

Nearby

Air Quality

  Air Quality AQ Index Pollutant
Not available.

Snow Depth

Station Depth Elevation

Earthquake Activity

City Distance Mag. Time & Date
Minimum magnitude displayed is 2.5.

Coastal Water Temperatures

Place Temperature

Stations

Nearby Weather Stations

Station Location Temp. Windchill Dew Point Humidity Wind Precip. Elev Updated Type
                   

Watches & Warnings

There are currently no watches in effect.